Time;durP1;ratioP1;P1;durP2;ratioP2;P2;SDS_P1;SDS_P2;PMS_P1;PMS_P2;Temp;Humidity;BMP_temperature;BMP_pressure;BME280_temperature;BME280_humidity;BME280_pressure;Samples;Min_cycle;Max_cycle;Signal;HPM_P1;HPM_P2
2022/11/12 00:00:13;;;;;;;31.50;19.35;;;9.60;99.90;;;10.34;100.00;100036.06;5168712;27;42376;-81
2022/11/12 00:03:01;;;;;;;30.55;19.35;;;9.60;99.90;;;10.30;100.00;100028.78;5168246;27;40084;-80
2022/11/12 00:05:49;;;;;;;29.30;19.33;;;9.60;99.90;;;10.18;100.00;100023.81;5168215;27;40035;-81
2022/11/12 00:08:36;;;;;;;30.38;18.63;;;9.60;99.90;;;10.24;100.00;100011.78;5150750;27;41871;-81
2022/11/12 00:11:23;;;;;;;35.40;20.35;;;9.60;99.90;;;10.25;100.00;100016.91;5147573;27;42204;-81
2022/11/12 00:14:11;;;;;;;30.63;19.13;;;9.50;99.90;;;10.20;100.00;100019.69;5150568;27;41157;-81
2022/11/12 00:16:58;;;;;;;29.35;19.10;;;9.60;99.90;;;10.20;100.00;100018.91;5147338;27;40317;-79
2022/11/12 00:19:45;;;;;;;30.30;20.50;;;9.60;99.90;;;10.24;100.00;100022.63;5147372;27;41608;-80
2022/11/12 00:22:32;;;;;;;34.97;20.73;;;9.60;99.90;;;10.15;100.00;100010.84;5147615;27;41341;-79
2022/11/12 00:25:19;;;;;;;33.13;20.25;;;9.60;99.90;;;10.24;100.00;100004.44;5147468;27;41174;-80
2022/11/12 00:28:09;;;;;;;32.53;19.33;;;9.60;99.90;;;10.20;100.00;100014.25;5147377;27;39975;-79
2022/11/12 00:30:57;;;;;;;33.92;20.30;;;9.60;99.90;;;10.08;100.00;100012.03;5147365;27;41895;-79
2022/11/12 00:33:44;;;;;;;32.58;20.23;;;9.60;99.90;;;10.16;100.00;100026.00;5147353;27;41160;-79
2022/11/12 00:36:31;;;;;;;30.23;19.02;;;9.60;99.90;;;10.23;100.00;100019.09;5147380;27;40644;-80
2022/11/12 00:39:18;;;;;;;31.33;18.80;;;9.60;99.90;;;10.19;100.00;100023.53;5149443;27;40930;-77
2022/11/12 00:42:05;;;;;;;32.42;20.25;;;9.60;99.90;;;10.22;100.00;100032.97;5147064;27;41840;-80
2022/11/12 00:44:52;;;;;;;27.85;18.05;;;9.60;99.90;;;10.30;100.00;100034.19;5146878;27;42248;-80
2022/11/12 00:47:40;;;;;;;29.35;18.58;;;9.60;99.90;;;10.20;100.00;100035.16;5147092;27;40248;-81
2022/11/12 00:50:27;;;;;;;33.08;19.33;;;9.60;99.90;;;10.23;100.00;100032.66;5147280;27;40355;-80
2022/11/12 00:53:14;;;;;;;31.25;19.60;;;9.60;99.90;;;10.33;100.00;100028.19;5147148;27;42762;-81
2022/11/12 00:56:03;;;;;;;28.27;17.80;;;9.60;99.90;;;10.18;100.00;100026.53;5147073;27;41296;-79
2022/11/12 00:58:50;;;;;;;30.60;18.67;;;9.60;99.90;;;10.24;100.00;100026.16;5147088;27;40194;-81
2022/11/12 01:01:38;;;;;;;28.70;19.58;;;9.60;99.90;;;10.26;100.00;100026.66;5146759;27;40752;-80
2022/11/12 01:04:26;;;;;;;30.58;18.98;;;9.70;99.90;;;10.40;100.00;100026.72;5131530;27;41387;-79
2022/11/12 01:07:14;;;;;;;27.95;17.92;;;9.60;99.90;;;10.36;100.00;100028.44;5146650;27;41229;-81
2022/11/12 01:10:01;;;;;;;31.27;19.50;;;9.60;99.90;;;10.25;100.00;100032.38;5146868;27;40247;-79
2022/11/12 01:12:48;;;;;;;26.75;18.30;;;9.60;99.90;;;10.28;100.00;100031.78;5146879;27;40141;-80
2022/11/12 01:15:40;;;;;;;31.13;19.55;;;9.70;99.90;;;10.18;100.00;100031.97;5146871;27;41745;-80
2022/11/12 01:18:27;;;;;;;30.45;19.33;;;9.70;99.90;;;10.24;100.00;100031.56;5158095;27;41341;-80
2022/11/12 01:21:15;;;;;;;29.80;19.40;;;9.60;99.90;;;10.38;100.00;100034.38;5171711;27;40467;-80
2022/11/12 01:24:02;;;;;;;27.33;18.77;;;9.60;99.90;;;10.29;100.00;100043.44;5171170;27;40920;-80
2022/11/12 01:26:49;;;;;;;29.75;18.88;;;9.70;99.90;;;10.19;100.00;100038.97;5170844;27;42496;-79
2022/11/12 01:29:36;;;;;;;32.20;18.65;;;9.60;99.90;;;10.28;100.00;100031.78;5170864;27;41013;-80
2022/11/12 01:32:23;;;;;;;28.48;18.77;;;9.60;99.90;;;10.37;100.00;100035.47;5171099;27;40042;-80
2022/11/12 01:35:10;;;;;;;28.13;18.40;;;9.60;99.90;;;10.26;100.00;100042.13;5170646;27;40080;-82
2022/11/12 01:37:58;;;;;;;33.35;19.33;;;9.60;99.90;;;10.16;100.00;100034.13;5171021;27;41797;-81
2022/11/12 01:40:45;;;;;;;28.73;19.08;;;9.60;99.90;;;10.25;100.00;100033.19;5171467;27;42252;-81
2022/11/12 01:43:33;;;;;;;30.83;19.85;;;9.60;99.90;;;10.29;100.00;100027.97;5155349;27;40352;-80
2022/11/12 01:46:26;;;;;;;29.38;19.02;;;9.60;99.90;;;10.34;100.00;100030.63;5170927;27;40720;-82
2022/11/12 01:49:19;;;;;;;29.98;19.20;;;9.60;99.90;;;10.21;100.00;100025.94;5171094;27;42553;-82
2022/11/12 01:52:17;;;;;;;30.13;19.08;;;9.60;99.90;;;10.24;100.00;100014.50;5170851;27;41006;-81
2022/11/12 01:55:11;;;;;;;28.23;17.13;;;9.50;99.90;;;10.03;100.00;100022.94;5155269;27;39763;-80
2022/11/12 01:58:05;;;;;;;31.75;18.67;;;9.60;99.90;;;10.04;100.00;100034.59;5170658;27;40777;-81
2022/11/12 02:00:52;;;;;;;29.80;18.02;;;9.50;99.90;;;9.90;100.00;100031.84;5170843;27;41652;-82
2022/11/12 02:03:40;;;;;;;30.02;19.17;;;9.50;99.90;;;9.94;100.00;100032.88;5170569;27;41337;-80
2022/11/12 02:06:27;;;;;;;32.38;19.83;;;9.50;99.90;;;10.13;100.00;100023.88;5170563;27;40273;-80
2022/11/12 02:09:14;;;;;;;28.05;19.02;;;9.50;99.90;;;9.99;100.00;100027.34;5170657;27;39494;-79
2022/11/12 02:12:03;;;;;;;32.17;18.90;;;9.50;99.90;;;10.11;100.00;100036.94;5170593;27;42005;-80
2022/11/12 02:14:49;;;;;;;30.58;18.48;;;9.50;99.90;;;10.21;100.00;100037.59;5170548;27;42134;-80
2022/11/12 02:17:37;;;;;;;30.25;19.08;;;9.50;99.90;;;10.25;100.00;100037.78;5170137;27;40077;-78
2022/11/12 02:20:24;;;;;;;28.10;18.95;;;9.50;99.90;;;10.23;100.00;100034.59;5170213;27;39945;-78
2022/11/12 02:23:12;;;;;;;29.08;18.08;;;9.50;99.90;;;10.31;100.00;100033.91;5170186;27;41717;-78
2022/11/12 02:26:00;;;;;;;29.55;17.95;;;9.50;99.90;;;10.42;100.00;100021.81;5170016;27;42921;-78
2022/11/12 02:28:47;;;;;;;24.38;17.45;;;9.60;99.90;;;10.31;100.00;100027.69;5169671;27;41034;-79
2022/11/12 02:31:35;;;;;;;29.48;17.05;;;9.60;99.90;;;10.28;100.00;100036.41;5169823;27;40979;-78
2022/11/12 02:34:22;;;;;;;27.75;18.08;;;9.60;99.90;;;10.28;100.00;100025.56;5169989;27;42720;-79
2022/11/12 02:37:09;;;;;;;26.65;16.38;;;9.60;99.90;;;10.22;100.00;100027.53;5169963;27;41352;-78
2022/11/12 02:39:57;;;;;;;30.90;17.27;;;9.60;99.90;;;10.25;100.00;100037.78;5154446;27;38972;-77
2022/11/12 02:42:44;;;;;;;29.35;16.55;;;9.60;99.90;;;10.22;100.00;100030.25;5154336;27;39073;-77
2022/11/12 02:45:32;;;;;;;27.27;16.55;;;9.60;99.90;;;10.30;100.00;100032.31;5169443;27;41859;-77
2022/11/12 02:48:19;;;;;;;23.65;16.30;;;9.60;99.90;;;10.22;100.00;100032.97;5169372;27;41812;-78
2022/11/12 02:51:07;;;;;;;29.55;16.70;;;9.60;99.90;;;10.21;100.00;100037.59;5169693;27;39993;-77
2022/11/12 02:53:54;;;;;;;28.50;17.58;;;9.60;99.90;;;10.23;100.00;100029.16;5169989;27;39742;-78
2022/11/12 02:56:42;;;;;;;29.83;17.88;;;9.60;99.90;;;10.00;100.00;100031.69;5169529;27;41962;-77
2022/11/12 02:59:29;;;;;;;28.52;17.45;;;9.60;99.90;;;10.10;100.00;100024.47;5169548;27;41334;-78
2022/11/12 03:02:16;;;;;;;26.75;17.20;;;9.60;99.90;;;10.04;100.00;100018.34;5169411;27;40307;-78
2022/11/12 03:05:03;;;;;;;25.80;15.40;;;9.60;99.90;;;10.06;100.00;100014.22;5169617;27;40046;-79
2022/11/12 03:07:50;;;;;;;25.00;16.98;;;9.60;99.90;;;10.23;100.00;100007.44;5169225;27;41848;-77
2022/11/12 03:10:38;;;;;;;23.55;15.68;;;9.60;99.90;;;10.23;100.00;100002.03;5169362;27;42319;-79
2022/11/12 03:13:27;;;;;;;25.25;15.35;;;9.60;99.90;;;10.33;100.00;99995.66;5154132;27;39760;-79
2022/11/12 03:16:14;;;;;;;24.88;16.30;;;9.70;99.90;;;10.25;100.00;100006.06;5169113;27;40898;-78
2022/11/12 03:19:01;;;;;;;25.15;16.25;;;9.70;99.90;;;10.41;100.00;100009.34;5169447;27;42637;-79
2022/11/12 03:21:48;;;;;;;23.20;14.82;;;9.70;99.90;;;10.38;100.00;100007.22;5169393;27;41175;-78
2022/11/12 03:24:34;;;;;;;23.23;15.43;;;9.70;99.90;;;10.49;100.00;100004.34;5169220;27;40326;-78
2022/11/12 03:27:21;;;;;;;25.98;15.43;;;9.70;99.90;;;10.45;100.00;99997.91;5169377;27;40573;-77
2022/11/12 03:30:12;;;;;;;24.83;16.35;;;9.70;99.90;;;10.42;100.00;100004.72;5169390;27;41642;-78
2022/11/12 03:32:59;;;;;;;24.95;14.93;;;9.80;99.90;;;10.47;100.00;100004.66;5169546;27;41022;-78
2022/11/12 03:35:46;;;;;;;26.65;16.02;;;9.80;99.90;;;10.55;100.00;100000.41;5169542;27;40523;-79
2022/11/12 03:38:33;;;;;;;24.33;15.20;;;9.80;99.90;;;10.54;100.00;99987.97;5153131;27;39629;-78
2022/11/12 03:41:20;;;;;;;22.60;13.77;;;9.80;99.90;;;10.78;100.00;99990.50;5168871;27;42142;-77
2022/11/12 03:44:07;;;;;;;21.48;13.90;;;9.90;99.90;;;10.70;100.00;99989.28;5167837;27;41297;-78
2022/11/12 03:46:55;;;;;;;22.73;14.98;;;9.90;99.90;;;10.89;100.00;99985.69;5168742;27;40436;-78
2022/11/12 03:49:43;;;;;;;20.92;14.02;;;9.90;99.90;;;10.94;100.00;100005.41;5168351;27;40037;-78
2022/11/12 03:52:29;;;;;;;22.98;13.95;;;9.90;99.90;;;10.97;100.00;99985.00;5168586;27;43600;-77
2022/11/12 03:55:19;;;;;;;22.90;13.73;;;9.90;99.90;;;10.84;100.00;99999.38;5168908;27;41570;-77
2022/11/12 03:58:05;;;;;;;20.15;12.38;;;9.90;99.90;;;10.68;100.00;100005.06;5168969;27;40332;-77
2022/11/12 04:00:52;;;;;;;19.98;12.43;;;9.90;99.90;;;10.54;100.00;99987.97;5168525;27;40205;-78
2022/11/12 04:03:41;;;;;;;21.48;12.98;;;9.90;99.90;;;10.55;100.00;99997.69;5168667;27;42677;-79
2022/11/12 04:09:32;;;;;;;18.33;11.43;;;9.90;99.90;;;10.46;100.00;100002.25;5168539;27;40082;-77
2022/11/12 04:15:34;;;;;;;16.92;10.73;;;10.00;99.90;;;10.37;100.00;99997.47;5123777;27;42245;-71
2022/11/12 04:21:50;;;;;;;16.70;10.52;;;10.00;99.90;;;10.36;100.00;99985.03;5168033;27;40011;-73
2022/11/12 04:27:44;;;;;;;16.15;10.32;;;10.00;99.90;;;10.38;100.00;99977.38;5168130;27;42777;-79
2022/11/12 04:30:30;;;;;;;15.73;10.30;;;10.00;99.90;;;10.41;100.00;99981.41;5168212;27;41445;-75
2022/11/12 04:33:17;;;;;;;17.65;11.10;;;10.00;99.90;;;10.40;100.00;99972.47;5168081;27;40870;-80
2022/11/12 04:36:04;;;;;;;15.38;10.32;;;10.00;99.90;;;10.46;100.00;99973.19;5168116;27;40836;-77
2022/11/12 04:38:53;;;;;;;18.70;11.30;;;10.00;99.90;;;10.43;100.00;99971.84;5169472;27;41632;-76
2022/11/12 04:45:00;;;;;;;13.88;9.05;;;10.00;99.90;;;10.47;100.00;99968.56;5170878;27;40303;-80
2022/11/12 04:47:47;;;;;;;16.98;9.98;;;10.00;99.90;;;10.40;100.00;99955.38;5167885;27;39986;-80
2022/11/12 04:50:35;;;;;;;13.52;9.85;;;10.00;99.90;;;10.40;100.00;99958.88;5167813;27;41940;-78
2022/11/12 04:53:22;;;;;;;15.15;9.75;;;10.10;99.90;;;10.39;100.00;99957.31;5167967;27;42222;-81
2022/11/12 04:56:11;;;;;;;14.18;9.15;;;10.00;99.90;;;10.42;100.00;99967.56;5169917;27;40720;-79
2022/11/12 04:58:58;;;;;;;13.13;8.93;;;10.00;99.90;;;10.55;100.00;99971.38;5171543;27;40003;-77
2022/11/12 05:01:45;;;;;;;14.48;9.65;;;10.00;99.90;;;10.51;100.00;99964.16;5154256;27;40776;-80
2022/11/12 05:04:32;;;;;;;14.73;9.45;;;10.10;99.90;;;10.47;100.00;99971.25;5154869;27;41321;-78
2022/11/12 05:07:20;;;;;;;14.50;9.10;;;10.10;99.90;;;10.35;100.00;99972.56;5169958;27;40300;-79
2022/11/12 05:10:08;;;;;;;14.13;9.02;;;10.10;99.90;;;10.35;100.00;99963.63;5165614;27;39853;-79
2022/11/12 05:12:57;;;;;;;13.88;8.95;;;10.10;99.90;;;10.48;100.00;99964.75;5149885;27;41734;-79
2022/11/12 05:15:44;;;;;;;14.43;9.02;;;10.10;99.90;;;10.54;100.00;99958.91;5168567;27;41463;-75
2022/11/12 05:18:31;;;;;;;11.65;8.10;;;10.10;99.90;;;10.46;100.00;99966.97;5171339;27;40329;-78
2022/11/12 05:24:24;;;;;;;10.55;7.18;;;10.10;99.90;;;10.41;100.00;99960.50;5171012;27;41727;-78
2022/11/12 05:27:13;;;;;;;11.15;6.50;;;10.10;99.90;;;10.62;100.00;99965.56;5171184;27;42109;-78
2022/11/12 05:30:02;;;;;;;12.68;7.20;;;10.10;99.90;;;10.55;100.00;99955.09;5170863;27;40126;-80
2022/11/12 05:32:49;;;;;;;10.32;6.60;;;10.20;99.90;;;10.51;100.00;99958.72;5171081;27;39878;-79
2022/11/12 05:35:36;;;;;;;13.85;6.75;;;10.20;99.90;;;10.56;100.00;99961.31;5155393;27;40880;-77
2022/11/12 05:38:23;;;;;;;10.48;6.53;;;10.20;99.90;;;10.51;100.00;99969.56;5171503;27;41259;-80
2022/11/12 05:41:10;;;;;;;13.27;6.28;;;10.20;99.90;;;10.55;100.00;99965.13;5170964;27;40863;-77
2022/11/12 05:43:57;;;;;;;11.30;6.30;;;10.20;99.90;;;10.58;100.00;99964.53;5170359;27;40049;-77
2022/11/12 05:46:45;;;;;;;8.70;5.68;;;10.20;99.90;;;10.63;100.00;99967.19;5170657;27;42327;-77
2022/11/12 05:49:32;;;;;;;10.25;6.18;;;10.20;99.90;;;10.66;100.00;99961.16;5170708;27;42184;-77
2022/11/12 05:52:19;;;;;;;9.40;5.67;;;10.20;99.90;;;10.61;100.00;99959.34;5155052;27;40073;-75
2022/11/12 05:55:07;;;;;;;8.07;5.10;;;10.20;99.90;;;10.57;100.00;99966.47;5170685;27;40641;-79
2022/11/12 05:57:54;;;;;;;8.20;5.55;;;10.30;99.90;;;10.64;100.00;99960.63;5170693;27;41718;-77
2022/11/12 06:00:41;;;;;;;8.32;5.60;;;10.30;99.90;;;10.59;100.00;99966.16;5170377;27;41461;-77
2022/11/12 06:03:30;;;;;;;8.45;5.30;;;10.30;99.90;;;10.69;100.00;99971.41;5170864;27;40070;-76
2022/11/12 06:06:17;;;;;;;7.85;5.05;;;10.30;99.90;;;10.85;100.00;99960.25;5170254;27;39876;-78
2022/11/12 06:09:05;;;;;;;8.15;4.95;;;10.30;99.90;;;10.88;100.00;99967.78;5170561;27;42597;-77
2022/11/12 06:11:51;;;;;;;7.07;4.82;;;10.30;99.90;;;10.71;100.00;99952.91;5170554;27;42309;-78
2022/11/12 06:14:39;;;;;;;10.18;5.53;;;10.30;99.90;;;10.70;100.00;99967.56;5170620;27;40748;-78
2022/11/12 06:17:26;;;;;;;;;;;10.30;99.90;;;10.81;100.00;99970.09;5171056;27;41080;-77
2022/11/12 06:20:14;;;;;;;8.95;4.60;;;10.30;99.90;;;10.92;100.00;99964.19;5172990;27;42650;-79
2022/11/12 06:23:01;;;;;;;7.70;4.85;;;10.40;99.90;;;10.81;100.00;99972.81;5170227;27;42051;-78
2022/11/12 06:25:48;;;;;;;8.10;4.95;;;10.40;99.90;;;10.77;100.00;99973.41;5170165;27;40212;-78
2022/11/12 06:28:35;;;;;;;6.97;4.57;;;10.40;99.90;;;10.74;100.00;99979.44;5169941;27;39972;-77
2022/11/12 06:31:22;;;;;;;8.52;4.97;;;10.40;99.90;;;10.81;100.00;99983.66;5170099;27;43120;-79
2022/11/12 06:34:11;;;;;;;7.68;4.40;;;10.40;99.90;;;10.78;100.00;99958.75;5169565;27;41137;-76
2022/11/12 06:36:59;;;;;;;7.10;4.25;;;10.40;99.90;;;10.73;100.00;99960.75;5169927;27;40419;-79
2022/11/12 06:39:46;;;;;;;7.88;4.40;;;10.40;99.90;;;10.75;100.00;99953.91;5172573;27;39889;-77
2022/11/12 06:42:33;;;;;;;7.35;4.57;;;10.40;99.90;;;10.84;100.00;99966.78;5169641;27;42545;-77
2022/11/12 06:45:20;;;;;;;;;;;10.40;99.90;;;10.92;100.00;99968.78;5170280;27;42350;-77
2022/11/12 06:48:07;;;;;;;8.63;4.47;;;10.40;99.90;;;10.79;100.00;99976.63;5169801;27;39982;-77
2022/11/12 06:50:54;;;;;;;7.78;4.57;;;10.40;99.90;;;10.87;100.00;99985.19;5169474;27;40564;-77
2022/11/12 06:53:42;;;;;;;6.35;4.07;;;10.50;99.90;;;10.83;100.00;99976.03;5169331;27;41901;-78
2022/11/12 06:56:29;;;;;;;8.68;4.47;;;10.50;99.90;;;10.96;100.00;99978.75;5169775;27;41265;-80
2022/11/12 06:59:17;;;;;;;9.02;4.93;;;10.50;99.90;;;10.94;100.00;99988.31;5169562;27;40304;-78
2022/11/12 07:02:04;;;;;;;9.32;4.93;;;10.50;99.90;;;10.85;100.00;99984.69;5169332;27;39965;-77
2022/11/12 07:04:51;;;;;;;9.90;4.95;;;10.50;99.90;;;10.83;100.00;99995.03;5169329;27;41309;-78
2022/11/12 07:07:38;;;;;;;9.05;5.00;;;10.50;99.90;;;10.80;100.00;99988.31;5169362;27;41172;-77
2022/11/12 07:10:26;;;;;;;7.95;4.38;;;10.50;99.90;;;10.90;100.00;99988.09;5169237;27;40298;-78
2022/11/12 07:13:14;;;;;;;8.18;4.72;;;10.50;99.90;;;10.97;100.00;99988.50;5169446;27;40849;-79
2022/11/12 07:16:03;;;;;;;8.25;4.75;;;10.50;99.90;;;10.80;100.00;100010.03;5169054;27;43210;-78
2022/11/12 07:18:51;;;;;;;12.00;4.75;;;10.50;99.90;;;10.76;100.00;100001.66;5167600;27;42445;-78
2022/11/12 07:21:38;;;;;;;9.43;4.32;;;10.50;99.90;;;10.81;100.00;100002.69;5168765;27;39944;-78
2022/11/12 07:24:25;;;;;;;12.25;5.22;;;10.50;99.90;;;10.69;100.00;100000.44;5168979;27;39700;-77
2022/11/12 07:27:13;;;;;;;11.23;5.60;;;10.50;99.90;;;10.77;100.00;100000.56;5168973;27;42807;-77
2022/11/12 07:30:00;;;;;;;9.00;5.53;;;10.60;99.90;;;10.69;100.00;100001.25;5168746;27;41610;-76
2022/11/12 07:32:47;;;;;;;10.82;5.75;;;10.50;99.90;;;10.78;100.00;99996.75;5168638;27;40692;-76
2022/11/12 07:35:34;;;;;;;9.20;5.88;;;10.50;99.90;;;10.79;100.00;100009.19;5168633;27;40134;-77
2022/11/12 07:38:21;;;;;;;12.20;6.18;;;10.50;99.90;;;10.69;100.00;99993.13;5168958;27;41711;-77
2022/11/12 07:41:10;;;;;;;;;;;10.50;99.90;;;10.86;100.00;99997.13;5153706;27;41119;-79
2022/11/12 07:43:59;;;;;;;9.30;6.13;;;10.50;99.90;;;10.70;100.00;99989.28;5168828;27;41704;-78
2022/11/12 07:46:46;;;;;;;15.30;6.53;;;10.60;99.90;;;10.69;100.00;99987.69;5168472;27;40832;-78
2022/11/12 07:49:33;;;;;;;12.50;6.00;;;10.60;99.90;;;10.88;100.00;99989.53;5168446;27;42555;-77
2022/11/12 07:52:20;;;;;;;16.52;7.30;;;10.60;99.90;;;11.04;100.00;99982.66;5168375;27;41393;-78
2022/11/12 07:55:08;;;;;;;9.40;5.93;;;10.70;99.90;;;11.02;100.00;99984.88;5168379;27;40734;-78
2022/11/12 07:57:59;;;;;;;14.93;6.32;;;10.70;99.90;;;10.93;100.00;99975.84;5168572;27;39835;-77
2022/11/12 08:00:48;;;;;;;13.88;5.95;;;10.80;99.90;;;11.01;100.00;99977.84;5153061;27;41367;-78
2022/11/12 08:03:36;;;;;;;13.57;5.82;;;10.80;99.90;;;11.07;100.00;99982.06;5152735;27;41226;-77
2022/11/12 08:06:23;;;;;;;;;;;10.70;99.90;;;11.08;100.00;99972.81;5168850;27;39931;-78
2022/11/12 08:09:10;;;;;;;14.25;6.18;;;10.80;99.90;;;11.23;100.00;99973.59;5168411;27;40355;-77
2022/11/12 08:11:56;;;;;;;11.47;6.23;;;10.80;99.90;;;10.92;100.00;100002.19;5168320;27;41617;-79
2022/11/12 08:14:43;;;;;;;14.90;6.00;;;10.90;99.90;;;10.90;100.00;99987.28;5167907;27;42044;-75
2022/11/12 08:17:32;;;;;;;13.23;6.10;;;10.90;99.90;;;11.17;100.00;99986.47;5168194;27;40510;-78
2022/11/12 08:20:19;;;;;;;12.30;5.43;;;10.90;99.90;;;11.39;100.00;99987.66;5167990;27;40868;-76
2022/11/12 08:23:06;;;;;;;11.77;6.13;;;11.00;99.90;;;11.43;100.00;99985.94;5171255;27;42391;-78
2022/11/12 08:25:57;;;;;;;12.80;6.80;;;11.00;99.90;;;11.03;100.00;100000.09;5168060;27;41329;-75
2022/11/12 08:28:44;;;;;;;11.50;5.72;;;10.90;99.90;;;10.97;100.00;99998.56;5167552;27;40628;-78
2022/11/12 08:31:31;;;;;;;11.15;5.15;;;11.00;99.90;;;10.97;100.00;99993.13;5167229;27;40040;-77
2022/11/12 08:34:19;;;;;;;8.35;5.13;;;11.00;99.90;;;11.01;100.00;99987.91;5167837;27;42884;-74
2022/11/12 08:37:06;;;;;;;9.82;5.25;;;11.00;99.90;;;11.14;100.00;100006.91;5167762;27;42139;-77
2022/11/12 08:39:54;;;;;;;11.88;5.45;;;11.00;99.90;;;11.29;100.00;99994.13;5170874;27;41252;-79
2022/11/12 08:42:42;;;;;;;7.93;5.25;;;11.10;99.90;;;11.22;100.00;100004.56;5171981;27;20139;-78
2022/11/12 08:45:32;;;;;;;10.45;5.18;;;11.00;99.90;;;11.27;100.00;100007.22;5167993;27;41771;-79
2022/11/12 08:48:19;;;;;;;10.70;5.68;;;11.10;99.90;;;11.20;100.00;100012.22;5167672;27;41640;-77
2022/11/12 08:51:08;;;;;;;11.38;5.55;;;11.10;99.90;;;11.30;100.00;100007.41;5167666;27;40161;-78
2022/11/12 08:53:55;;;;;;;12.40;5.70;;;11.10;99.90;;;11.34;100.00;100002.16;5167800;27;40627;-79
2022/11/12 08:56:42;;;;;;;10.80;5.05;;;11.10;99.90;;;11.38;100.00;100008.59;5167849;27;42596;-78
2022/11/12 08:59:28;;;;;;;9.13;4.97;;;11.10;99.90;;;11.45;100.00;100003.56;5167944;27;41311;-79
2022/11/12 09:02:15;;;;;;;9.40;4.65;;;11.20;99.90;;;11.34;100.00;100007.59;5167418;27;40065;-79
2022/11/12 09:05:02;;;;;;;9.43;5.15;;;11.20;99.90;;;11.45;100.00;99994.59;5167560;27;40813;-78
2022/11/12 09:07:58;;;;;;;11.87;5.73;;;11.20;99.90;;;11.57;100.00;99997.59;5167624;27;42074;-78
2022/11/12 09:10:45;;;;;;;10.15;4.47;;;11.20;99.90;;;11.64;100.00;100005.31;5167155;27;42198;-78
2022/11/12 09:13:32;;;;;;;;;;;11.30;99.90;;;11.50;100.00;99989.84;5167729;27;40029;-76
2022/11/12 09:16:20;;;;;;;9.73;4.32;;;11.20;99.90;;;11.49;100.00;100026.28;5167326;27;40003;-76
2022/11/12 09:19:06;;;;;;;;;;;11.30;99.90;;;11.25;100.00;100012.94;5167866;27;42169;-78
2022/11/12 09:21:53;;;;;;;8.15;4.57;;;11.30;97.20;;;11.51;100.00;100013.22;5152332;27;41445;-79
2022/11/12 09:24:41;;;;;;;10.38;4.55;;;11.30;97.30;;;11.36;100.00;99999.94;5167238;27;40032;-77
2022/11/12 09:27:29;;;;;;;9.63;4.82;;;11.30;97.40;;;11.63;100.00;99987.41;5167401;27;40810;-79
2022/11/12 09:30:16;;;;;;;9.63;5.15;;;11.30;96.00;;;11.74;100.00;99993.41;5167229;27;42303;-77
2022/11/12 09:33:03;;;;;;;8.57;4.68;;;11.40;90.20;;;11.54;100.00;99983.81;5167279;27;41136;-78
2022/11/12 09:35:51;;;;;;;10.18;4.05;;;11.40;90.20;;;11.59;100.00;99987.19;5167235;27;39890;-78
2022/11/12 09:38:38;;;;;;;10.35;4.15;;;11.40;90.20;;;11.57;100.00;99999.50;5168021;27;39871;-78
2022/11/12 09:41:33;;;;;;;9.68;4.55;;;11.40;90.20;;;11.68;100.00;99992.72;5167270;27;43018;-77
2022/11/12 09:44:23;;;;;;;9.40;4.30;;;11.40;90.20;;;11.72;100.00;99996.44;5170613;27;42066;-78
2022/11/12 09:47:16;;;;;;;10.30;4.57;;;11.40;90.20;;;11.68;100.00;99995.44;5170484;27;40203;-77
2022/11/12 09:50:18;;;;;;;9.45;4.28;;;11.40;89.40;;;11.66;100.00;99992.22;5170514;27;41812;-80
2022/11/12 09:53:12;;;;;;;8.70;4.00;;;11.40;87.20;;;11.75;100.00;99990.41;5170400;27;42965;-76
2022/11/12 09:55:59;;;;;;;9.80;3.97;;;11.50;81.10;;;11.82;100.00;99985.31;5170177;27;41267;-78
2022/11/12 09:58:48;;;;;;;8.85;4.35;;;11.50;70.20;;;12.05;100.00;99982.66;5170565;27;39738;-79
2022/11/12 10:01:48;;;;;;;7.65;4.47;;;11.50;71.80;;;11.70;100.00;100006.81;5170327;27;41051;-78
2022/11/12 10:04:56;;;;;;;6.80;3.97;;;11.50;63.30;;;11.77;100.00;99982.72;5170156;27;42892;-76
2022/11/12 10:07:53;;;;;;;;;;;11.50;69.60;;;11.73;100.00;99987.16;5170696;27;41324;-79
2022/11/12 10:10:47;;;;;;;7.03;4.32;;;11.50;63.80;;;11.96;100.00;99976.34;5154865;27;40034;-78
2022/11/12 10:13:52;;;;;;;8.40;4.18;;;11.50;70.20;;;12.00;100.00;99985.50;5170002;27;40647;-76
2022/11/12 10:17:01;;;;;;;10.23;4.63;;;11.60;54.20;;;11.83;100.00;99965.19;5169910;27;41851;-78
2022/11/12 10:20:02;;;;;;;7.75;4.15;;;11.50;57.60;;;11.95;100.00;99994.59;5170006;27;42505;-79
2022/11/12 10:23:09;;;;;;;10.38;4.15;;;11.60;40.80;;;11.89;100.00;99987.63;5170108;27;40971;-78
2022/11/12 10:26:01;;;;;;;11.07;3.88;;;11.60;31.10;;;11.81;100.00;99982.91;5169873;27;39967;-78
2022/11/12 10:28:51;;;;;;;7.05;3.92;;;11.50;36.00;;;11.81;100.00;99974.75;5169676;27;42605;-78
2022/11/12 10:31:38;;;;;;;9.35;3.78;;;11.50;33.40;;;11.90;100.00;99948.41;5169653;27;41466;-77
2022/11/12 10:34:27;;;;;;;8.35;4.28;;;11.50;34.10;;;11.58;100.00;99985.59;5154525;27;40083;-78
2022/11/12 10:37:20;;;;;;;7.82;3.70;;;11.40;32.60;;;11.87;100.00;99982.50;5169676;27;41271;-76
2022/11/12 10:40:34;;;;;;;8.00;3.60;;;11.50;28.20;;;11.74;100.00;99988.78;5169577;27;41824;-78
2022/11/12 10:43:24;;;;;;;8.27;3.35;;;11.50;23.30;;;11.67;100.00;99982.94;5164906;27;41376;-77
2022/11/12 10:46:20;;;;;;;8.27;4.10;;;11.40;27.00;;;11.70;100.00;99976.91;5172592;27;40954;-76
2022/11/12 10:49:23;;;;;;;6.38;3.60;;;11.50;27.20;;;11.87;100.00;99990.66;5169406;27;39844;-79
2022/11/12 10:52:24;;;;;;;7.53;3.35;;;11.50;29.70;;;11.71;100.00;99986.66;5169098;27;42327;-80
2022/11/12 10:55:19;;;;;;;7.90;3.33;;;11.40;29.70;;;11.66;100.00;99998.47;5169421;27;41386;-77
2022/11/12 10:58:19;;;;;;;6.20;3.03;;;11.40;35.10;;;11.93;100.00;99974.25;5169550;27;40137;-79
2022/11/12 11:01:16;;;;;;;6.18;3.30;;;11.40;44.00;;;11.93;100.00;99960.63;5169167;27;39792;-78
2022/11/12 11:04:03;;;;;;;6.10;3.03;;;11.40;35.50;;;12.07;100.00;99966.00;5169175;27;41842;-79
2022/11/12 11:07:04;;;;;;;6.18;3.45;;;11.50;37.70;;;11.95;100.00;99972.81;5169228;27;41530;-77
2022/11/12 11:09:57;;;;;;;6.22;3.40;;;11.40;35.90;;;11.99;100.00;99989.31;5168941;27;40772;-78
2022/11/12 11:12:44;;;;;;;5.38;3.20;;;11.40;33.70;;;11.99;100.00;99960.19;5169307;27;39937;-79
2022/11/12 11:15:31;;;;;;;;;;;11.50;34.30;;;11.91;100.00;99941.09;5169518;27;42318;-78
2022/11/12 11:18:18;;;;;;;7.35;3.47;;;11.40;30.20;;;12.08;100.00;99954.81;5169118;27;41538;-78
2022/11/12 11:21:20;;;;;;;5.45;2.88;;;11.50;33.70;;;11.80;100.00;99967.72;5169194;27;40204;-77
2022/11/12 11:24:36;;;;;;;6.03;2.97;;;11.50;24.00;;;11.69;100.00;99969.88;5169127;27;40582;-77
2022/11/12 11:27:43;;;;;;;4.53;2.50;;;11.40;29.60;;;11.68;100.00;99970.97;5169075;27;42065;-79
2022/11/12 11:30:31;;;;;;;5.78;3.00;;;11.40;34.80;;;11.72;100.00;99968.44;5168960;27;42119;-77
2022/11/12 11:33:45;;;;;;;6.38;3.03;;;11.40;37.90;;;11.84;100.00;99976.84;5171985;27;40642;-77
2022/11/12 11:36:41;;;;;;;5.28;2.75;;;11.40;29.80;;;12.03;100.00;99984.88;5169317;27;40092;-77
2022/11/12 11:39:43;;;;;;;5.15;2.60;;;11.50;31.50;;;11.82;100.00;99974.44;5171884;27;42184;-77
2022/11/12 11:42:56;;;;;;;4.93;2.40;;;11.40;27.00;;;11.59;100.00;100002.72;5168734;27;42249;-76
2022/11/12 11:46:03;;;;;;;4.95;2.63;;;11.30;33.90;;;11.50;100.00;99978.97;5169162;27;41010;-78
2022/11/12 11:49:21;;;;;;;5.07;2.58;;;11.30;40.50;;;11.86;100.00;99986.31;5168526;27;39972;-77
2022/11/12 11:52:30;;;;;;;5.63;2.35;;;11.40;43.50;;;11.59;100.00;99981.75;5168377;27;41794;-80
2022/11/12 11:55:54;;;;;;;4.70;2.40;;;11.30;30.40;;;11.51;100.00;99980.59;5168579;27;41388;-78
2022/11/12 11:59:25;;;;;;;5.82;2.33;;;11.30;36.80;;;11.68;100.00;100007.09;5168423;27;40904;-78